Airfield :
LOGIN :

Register | Disclaimer

   EN    FR    IT 

 










Legend :    VFR   Marginal VFR   IFR   Intensive IFR   Very Intensive IFR
Visi :
Ceiling :
>= 8 km
>= 3000ft
5 to 8 km
1000 to 3000 ft
1500m to 5 km
500 to 1000 ft
800 to 1500m
200 to 500 ft
< 800m
< 200 ft
Symbols :   Thunderstorms  Fog  Heavy snow  Heavy precipitations  Wind > 20 kt
SIGMETs :     Misc.  Thunderstorms  Icing  Turbulence  Mountain Waves  Volcanic Ashes







- Airport Elevation : 1197 ft
- IATA code : SPM


ETAD - Spangdahlem Ab

CURRENT METAR :
  • 190856Z AUTO 05015G23KT 9999 OVC023 03/M01 A2997 RMK AO2 CIG 021 RWY23 SLP156 T00281007 57017 $

EXPIRED METARs :
  • 190826Z 05011G18KT 9999 SCT017 BKN025 BKN030 OVC060 03/00 A2998 RMK AO2A SLP159 $
  • 190756Z AUTO 05010KT 9999 BKN014 BKN026 OVC060 02/M01 A2999 RMK AO2 SLP163 T00221006 $
  • 190656Z AUTO 04010KT 9999 OVC014 02/M02 A3000 RMK AO2 SLP166 T00151016 $
  • 190635Z AUTO 04008KT 9999 OVC014 01/M02 A3001 RMK AO2 SLP169 $
  • 190626Z AUTO 04008KT 9999 OVC015 01/M02 A3001 RMK AO2 SLP169 $

TAF AMD TAF ETAD
Valid from the 19 at 05:00 until the 20 at 11:00 UTC


190545Z 1905/2011 05012G20KT 9999 BKN013 OVC018 620204 QNH2999INS
TEMPO 1906/1908 OVC018
BECMG 1908/1909 05015G25KT 9999 BKN020 BKN050 620207 QNH2985INS
TEMPO 1910/1914 6000 -SHSN OVC015
BECMG 1918/1919 05012G18KT 9999 BKN030 620303 QNH2977INS
BECMG 2001/2002 03008KT 9999 SCT035 QNH2968INS
BECMG 2008/2009 07012G18KT 9999 SCT030 QNH2967INS TX03/1912Z TN00/2003Z
No reported NOTAMs for that airfield.



MET'MAP, your aeronautical weather chart ! - Copyright ORBIFLY December 2007 - Disclaimer

ORBIFLY MET'MAP TEAM :

Programming & Development : Alexandra Zaïnal
Concept & Development : Baudouin d'Aumeries
Co-Development & Prog : Marc-Olivier Méhu
Technical & hardware support : Manuel Goepfert

Contact : metmap@orbifly.com




SOURCES & CREDITS :

   NOAA